<?xml version="1.0" encoding="UTF-8" standalone="no" ?>
<gpx xmlns="http://www.topografix.com/GPX/1/1" xmlns:xsi="http://www.w3.org/2001/XMLSchema-instance" xsi:schemaLocation="http://www.topografix.com/GPX/1/1 http://www.topografix.com/GPX/1/1/gpx.xsd" version="1.1" creator="VisuGPX - https://www.visugpx.com">
  <metadata>
    <name>Balades et randos - Ecurie AMOEDO</name>
  </metadata>
  <trk>
    <name><![CDATA[La chatonnière]]></name>
    <trkseg>
      <trkpt lat="47.3314" lon="0.46912">
        <ele>41</ele>
        <time>2019-08-08T17:14:40.000Z</time>
      </trkpt>
      <trkpt lat="47.3314" lon="0.46912">
        <ele>41</ele>
        <time>2019-08-08T17:14:40.000Z</time>
      </trkpt>
      <trkpt lat="47.33077" lon="0.46959">
        <ele>38</ele>
        <time>2019-08-08T17:15:15.324Z</time>
      </trkpt>
      <trkpt lat="47.32977" lon="0.47002">
        <ele>39</ele>
        <time>2019-08-08T17:16:07.443Z</time>
      </trkpt>
      <trkpt lat="47.32969" lon="0.46993">
        <ele>39</ele>
        <time>2019-08-08T17:16:12.477Z</time>
      </trkpt>
      <trkpt lat="47.32838" lon="0.46915">
        <ele>40</ele>
        <time>2019-08-08T17:17:23.163Z</time>
      </trkpt>
      <trkpt lat="47.32872" lon="0.46814">
        <ele>40</ele>
        <time>2019-08-08T17:18:01.410Z</time>
      </trkpt>
      <trkpt lat="47.32902" lon="0.46706">
        <ele>40</ele>
        <time>2019-08-08T17:18:40.995Z</time>
      </trkpt>
      <trkpt lat="47.329" lon="0.46678">
        <ele>40</ele>
        <time>2019-08-08T17:18:50.544Z</time>
      </trkpt>
      <trkpt lat="47.32851" lon="0.46611">
        <ele>39</ele>
        <time>2019-08-08T17:19:23.973Z</time>
      </trkpt>
      <trkpt lat="47.32812" lon="0.46573">
        <ele>38</ele>
        <time>2019-08-08T17:19:47.359Z</time>
      </trkpt>
      <trkpt lat="47.32799" lon="0.46565">
        <ele>38</ele>
        <time>2019-08-08T17:19:54.407Z</time>
      </trkpt>
      <trkpt lat="47.32759" lon="0.46537">
        <ele>38</ele>
        <time>2019-08-08T17:20:16.561Z</time>
      </trkpt>
      <trkpt lat="47.32743" lon="0.46495">
        <ele>39</ele>
        <time>2019-08-08T17:20:32.901Z</time>
      </trkpt>
      <trkpt lat="47.32724" lon="0.46444">
        <ele>39</ele>
        <time>2019-08-08T17:20:52.639Z</time>
      </trkpt>
      <trkpt lat="47.3278" lon="0.46374">
        <ele>39</ele>
        <time>2019-08-08T17:21:29.365Z</time>
      </trkpt>
      <trkpt lat="47.32684" lon="0.46241">
        <ele>38</ele>
        <time>2019-08-08T17:22:35.261Z</time>
      </trkpt>
      <trkpt lat="47.32358" lon="0.45782">
        <ele>44</ele>
        <time>2019-08-08T17:26:20.751Z</time>
      </trkpt>
      <trkpt lat="47.32265" lon="0.45507">
        <ele>45</ele>
        <time>2019-08-08T17:28:04.991Z</time>
      </trkpt>
      <trkpt lat="47.32184" lon="0.45241">
        <ele>40</ele>
        <time>2019-08-08T17:29:43.902Z</time>
      </trkpt>
      <trkpt lat="47.3207" lon="0.44812">
        <ele>38</ele>
        <time>2019-08-08T17:32:20.200Z</time>
      </trkpt>
      <trkpt lat="47.31879" lon="0.44892">
        <ele>38</ele>
        <time>2019-08-08T17:33:59.550Z</time>
      </trkpt>
      <trkpt lat="47.31781" lon="0.44513">
        <ele>39</ele>
        <time>2019-08-08T17:36:17.148Z</time>
      </trkpt>
      <trkpt lat="47.31785" lon="0.44479">
        <ele>39</ele>
        <time>2019-08-08T17:36:28.854Z</time>
      </trkpt>
      <trkpt lat="47.31745" lon="0.44294">
        <ele>39</ele>
        <time>2019-08-08T17:37:34.725Z</time>
      </trkpt>
      <trkpt lat="47.31708" lon="0.4414">
        <ele>39</ele>
        <time>2019-08-08T17:38:30.149Z</time>
      </trkpt>
      <trkpt lat="47.31639" lon="0.43812">
        <ele>38</ele>
        <time>2019-08-08T17:40:26.649Z</time>
      </trkpt>
      <trkpt lat="47.3162" lon="0.43752">
        <ele>38</ele>
        <time>2019-08-08T17:40:49.114Z</time>
      </trkpt>
      <trkpt lat="47.31586" lon="0.43645">
        <ele>38</ele>
        <time>2019-08-08T17:41:29.201Z</time>
      </trkpt>
      <trkpt lat="47.31586" lon="0.436">
        <ele>38</ele>
        <time>2019-08-08T17:41:44.467Z</time>
      </trkpt>
      <trkpt lat="47.31618" lon="0.43518">
        <ele>37</ele>
        <time>2019-08-08T17:42:16.563Z</time>
      </trkpt>
      <trkpt lat="47.31607" lon="0.43436">
        <ele>37</ele>
        <time>2019-08-08T17:42:44.919Z</time>
      </trkpt>
      <trkpt lat="47.31556" lon="0.43387">
        <ele>37</ele>
        <time>2019-08-08T17:43:15.375Z</time>
      </trkpt>
      <trkpt lat="47.31538" lon="0.43367">
        <ele>37</ele>
        <time>2019-08-08T17:43:26.651Z</time>
      </trkpt>
      <trkpt lat="47.31482" lon="0.43224">
        <ele>38</ele>
        <time>2019-08-08T17:44:22.673Z</time>
      </trkpt>
      <trkpt lat="47.3142" lon="0.42941">
        <ele>38</ele>
        <time>2019-08-08T17:46:03.567Z</time>
      </trkpt>
      <trkpt lat="47.31402" lon="0.42952">
        <ele>38</ele>
        <time>2019-08-08T17:46:13.316Z</time>
      </trkpt>
      <trkpt lat="47.31388" lon="0.4292">
        <ele>38</ele>
        <time>2019-08-08T17:46:26.236Z</time>
      </trkpt>
      <trkpt lat="47.31354" lon="0.42872">
        <ele>39</ele>
        <time>2019-08-08T17:46:49.786Z</time>
      </trkpt>
      <trkpt lat="47.31315" lon="0.42815">
        <ele>39</ele>
        <time>2019-08-08T17:47:17.259Z</time>
      </trkpt>
      <trkpt lat="47.31308" lon="0.42764">
        <ele>39</ele>
        <time>2019-08-08T17:47:34.912Z</time>
      </trkpt>
      <trkpt lat="47.31299" lon="0.42724">
        <ele>39</ele>
        <time>2019-08-08T17:47:49.210Z</time>
      </trkpt>
      <trkpt lat="47.31274" lon="0.42687">
        <ele>39</ele>
        <time>2019-08-08T17:48:06.931Z</time>
      </trkpt>
      <trkpt lat="47.31234" lon="0.42589">
        <ele>38</ele>
        <time>2019-08-08T17:48:45.738Z</time>
      </trkpt>
      <trkpt lat="47.3125" lon="0.42567">
        <ele>38</ele>
        <time>2019-08-08T17:48:56.683Z</time>
      </trkpt>
      <trkpt lat="47.31234" lon="0.42531">
        <ele>38</ele>
        <time>2019-08-08T17:49:11.286Z</time>
      </trkpt>
      <trkpt lat="47.31202" lon="0.42506">
        <ele>38</ele>
        <time>2019-08-08T17:49:29.406Z</time>
      </trkpt>
      <trkpt lat="47.31174" lon="0.42494">
        <ele>37</ele>
        <time>2019-08-08T17:49:43.996Z</time>
      </trkpt>
      <trkpt lat="47.31137" lon="0.42457">
        <ele>38</ele>
        <time>2019-08-08T17:50:06.364Z</time>
      </trkpt>
      <trkpt lat="47.31111" lon="0.42414">
        <ele>39</ele>
        <time>2019-08-08T17:50:25.911Z</time>
      </trkpt>
      <trkpt lat="47.30985" lon="0.42311">
        <ele>38</ele>
        <time>2019-08-08T17:51:37.995Z</time>
      </trkpt>
      <trkpt lat="47.30843" lon="0.42171">
        <ele>38</ele>
        <time>2019-08-08T17:53:03.463Z</time>
      </trkpt>
      <trkpt lat="47.30794" lon="0.42301">
        <ele>38</ele>
        <time>2019-08-08T17:53:53.927Z</time>
      </trkpt>
      <trkpt lat="47.30758" lon="0.42507">
        <ele>39</ele>
        <time>2019-08-08T17:55:06.104Z</time>
      </trkpt>
      <trkpt lat="47.30763" lon="0.42636">
        <ele>38</ele>
        <time>2019-08-08T17:55:49.943Z</time>
      </trkpt>
      <trkpt lat="47.30709" lon="0.42626">
        <ele>38</ele>
        <time>2019-08-08T17:56:17.176Z</time>
      </trkpt>
      <trkpt lat="47.30565" lon="0.42503">
        <ele>39</ele>
        <time>2019-08-08T17:57:40.444Z</time>
      </trkpt>
      <trkpt lat="47.30434" lon="0.41941">
        <ele>39</ele>
        <time>2019-08-08T18:01:02.084Z</time>
      </trkpt>
      <trkpt lat="47.30347" lon="0.418">
        <ele>38</ele>
        <time>2019-08-08T18:02:06.768Z</time>
      </trkpt>
      <trkpt lat="47.30306" lon="0.41662">
        <ele>38</ele>
        <time>2019-08-08T18:02:57.890Z</time>
      </trkpt>
      <trkpt lat="47.29969" lon="0.41924">
        <ele>43</ele>
        <time>2019-08-08T18:06:08.518Z</time>
      </trkpt>
      <trkpt lat="47.29879" lon="0.41682">
        <ele>42</ele>
        <time>2019-08-08T18:07:42.176Z</time>
      </trkpt>
      <trkpt lat="47.29848" lon="0.41685">
        <ele>43</ele>
        <time>2019-08-08T18:07:57.721Z</time>
      </trkpt>
      <trkpt lat="47.29826" lon="0.41726">
        <ele>45</ele>
        <time>2019-08-08T18:08:15.462Z</time>
      </trkpt>
      <trkpt lat="47.29806" lon="0.41744">
        <ele>46</ele>
        <time>2019-08-08T18:08:27.186Z</time>
      </trkpt>
      <trkpt lat="47.29787" lon="0.41717">
        <ele>46</ele>
        <time>2019-08-08T18:08:40.390Z</time>
      </trkpt>
      <trkpt lat="47.29774" lon="0.41681">
        <ele>46</ele>
        <time>2019-08-08T18:08:54.230Z</time>
      </trkpt>
      <trkpt lat="47.29746" lon="0.41664">
        <ele>47</ele>
        <time>2019-08-08T18:09:09.382Z</time>
      </trkpt>
      <trkpt lat="47.29742" lon="0.4166">
        <ele>47</ele>
        <time>2019-08-08T18:09:11.800Z</time>
      </trkpt>
      <trkpt lat="47.29743" lon="0.41602">
        <ele>48</ele>
        <time>2019-08-08T18:09:31.489Z</time>
      </trkpt>
      <trkpt lat="47.29727" lon="0.41596">
        <ele>48</ele>
        <time>2019-08-08T18:09:39.750Z</time>
      </trkpt>
      <trkpt lat="47.29708" lon="0.41544">
        <ele>49</ele>
        <time>2019-08-08T18:09:59.794Z</time>
      </trkpt>
      <trkpt lat="47.29661" lon="0.4147">
        <ele>51</ele>
        <time>2019-08-08T18:10:34.199Z</time>
      </trkpt>
      <trkpt lat="47.29565" lon="0.41314">
        <ele>51</ele>
        <time>2019-08-08T18:11:45.684Z</time>
      </trkpt>
      <trkpt lat="47.29174" lon="0.4154">
        <ele>80</ele>
        <time>2019-08-08T18:15:15.828Z</time>
      </trkpt>
      <trkpt lat="47.2905" lon="0.41507">
        <ele>89</ele>
        <time>2019-08-08T18:16:18.878Z</time>
      </trkpt>
      <trkpt lat="47.28886" lon="0.41528">
        <ele>92</ele>
        <time>2019-08-08T18:17:41.249Z</time>
      </trkpt>
      <trkpt lat="47.28647" lon="0.41619">
        <ele>87</ele>
        <time>2019-08-08T18:19:44.763Z</time>
      </trkpt>
      <trkpt lat="47.2844" lon="0.41731">
        <ele>83</ele>
        <time>2019-08-08T18:21:35.097Z</time>
      </trkpt>
      <trkpt lat="47.28432" lon="0.41881">
        <ele>83</ele>
        <time>2019-08-08T18:22:26.170Z</time>
      </trkpt>
      <trkpt lat="47.27975" lon="0.41847">
        <ele>82</ele>
        <time>2019-08-08T18:26:15.133Z</time>
      </trkpt>
      <trkpt lat="47.27978" lon="0.4195">
        <ele>78</ele>
        <time>2019-08-08T18:26:50.130Z</time>
      </trkpt>
      <trkpt lat="47.27968" lon="0.42019">
        <ele>76</ele>
        <time>2019-08-08T18:27:14.082Z</time>
      </trkpt>
      <trkpt lat="47.27949" lon="0.42076">
        <ele>76</ele>
        <time>2019-08-08T18:27:35.641Z</time>
      </trkpt>
      <trkpt lat="47.27814" lon="0.42053">
        <ele>71</ele>
        <time>2019-08-08T18:28:43.642Z</time>
      </trkpt>
      <trkpt lat="47.27803" lon="0.42175">
        <ele>72</ele>
        <time>2019-08-08T18:29:25.422Z</time>
      </trkpt>
      <trkpt lat="47.27768" lon="0.42259">
        <ele>73</ele>
        <time>2019-08-08T18:29:58.887Z</time>
      </trkpt>
      <trkpt lat="47.27763" lon="0.42322">
        <ele>72</ele>
        <time>2019-08-08T18:30:20.420Z</time>
      </trkpt>
      <trkpt lat="47.27732" lon="0.42436">
        <ele>67</ele>
        <time>2019-08-08T18:31:02.114Z</time>
      </trkpt>
      <trkpt lat="47.27711" lon="0.42471">
        <ele>68</ele>
        <time>2019-08-08T18:31:17.976Z</time>
      </trkpt>
      <trkpt lat="47.27754" lon="0.42508">
        <ele>71</ele>
        <time>2019-08-08T18:31:42.890Z</time>
      </trkpt>
      <trkpt lat="47.27849" lon="0.42565">
        <ele>76</ele>
        <time>2019-08-08T18:32:34.213Z</time>
      </trkpt>
      <trkpt lat="47.2791" lon="0.42574">
        <ele>77</ele>
        <time>2019-08-08T18:33:04.889Z</time>
      </trkpt>
      <trkpt lat="47.27933" lon="0.42579">
        <ele>80</ele>
        <time>2019-08-08T18:33:16.522Z</time>
      </trkpt>
      <trkpt lat="47.27996" lon="0.42642">
        <ele>80</ele>
        <time>2019-08-08T18:33:54.616Z</time>
      </trkpt>
      <trkpt lat="47.28044" lon="0.42675">
        <ele>80</ele>
        <time>2019-08-08T18:34:21.118Z</time>
      </trkpt>
      <trkpt lat="47.2818" lon="0.42666">
        <ele>86</ele>
        <time>2019-08-08T18:35:29.238Z</time>
      </trkpt>
      <trkpt lat="47.28227" lon="0.42686">
        <ele>86</ele>
        <time>2019-08-08T18:35:53.716Z</time>
      </trkpt>
      <trkpt lat="47.28316" lon="0.42772">
        <ele>86</ele>
        <time>2019-08-08T18:36:46.965Z</time>
      </trkpt>
      <trkpt lat="47.28442" lon="0.42958">
        <ele>86</ele>
        <time>2019-08-08T18:38:16.190Z</time>
      </trkpt>
      <trkpt lat="47.28471" lon="0.42974">
        <ele>86</ele>
        <time>2019-08-08T18:38:31.684Z</time>
      </trkpt>
      <trkpt lat="47.28551" lon="0.42841">
        <ele>90</ele>
        <time>2019-08-08T18:39:32.020Z</time>
      </trkpt>
      <trkpt lat="47.28641" lon="0.42758">
        <ele>92</ele>
        <time>2019-08-08T18:40:25.140Z</time>
      </trkpt>
      <trkpt lat="47.28656" lon="0.42738">
        <ele>91</ele>
        <time>2019-08-08T18:40:35.260Z</time>
      </trkpt>
      <trkpt lat="47.28705" lon="0.42712">
        <ele>91</ele>
        <time>2019-08-08T18:41:01.318Z</time>
      </trkpt>
      <trkpt lat="47.28794" lon="0.42692">
        <ele>90</ele>
        <time>2019-08-08T18:41:46.366Z</time>
      </trkpt>
      <trkpt lat="47.28941" lon="0.4245">
        <ele>88</ele>
        <time>2019-08-08T18:43:36.624Z</time>
      </trkpt>
      <trkpt lat="47.29031" lon="0.42555">
        <ele>88</ele>
        <time>2019-08-08T18:44:34.053Z</time>
      </trkpt>
      <trkpt lat="47.29052" lon="0.42658">
        <ele>90</ele>
        <time>2019-08-08T18:45:10.556Z</time>
      </trkpt>
      <trkpt lat="47.292" lon="0.42812">
        <ele>89</ele>
        <time>2019-08-08T18:46:41.198Z</time>
      </trkpt>
      <trkpt lat="47.2943" lon="0.43066">
        <ele>87</ele>
        <time>2019-08-08T18:49:04.989Z</time>
      </trkpt>
      <trkpt lat="47.29482" lon="0.43027">
        <ele>87</ele>
        <time>2019-08-08T18:49:34.181Z</time>
      </trkpt>
      <trkpt lat="47.29602" lon="0.43336">
        <ele>85</ele>
        <time>2019-08-08T18:51:35.019Z</time>
      </trkpt>
      <trkpt lat="47.29794" lon="0.43315">
        <ele>85</ele>
        <time>2019-08-08T18:53:11.355Z</time>
      </trkpt>
      <trkpt lat="47.2987" lon="0.43164">
        <ele>81</ele>
        <time>2019-08-08T18:54:15.166Z</time>
      </trkpt>
      <trkpt lat="47.29977" lon="0.43087">
        <ele>74</ele>
        <time>2019-08-08T18:55:14.742Z</time>
      </trkpt>
      <trkpt lat="47.30073" lon="0.4301">
        <ele>63</ele>
        <time>2019-08-08T18:56:09.425Z</time>
      </trkpt>
      <trkpt lat="47.3014" lon="0.42881">
        <ele>55</ele>
        <time>2019-08-08T18:57:04.562Z</time>
      </trkpt>
      <trkpt lat="47.30268" lon="0.42774">
        <ele>47</ele>
        <time>2019-08-08T18:58:18.185Z</time>
      </trkpt>
      <trkpt lat="47.30489" lon="0.42602">
        <ele>39</ele>
        <time>2019-08-08T19:00:23.224Z</time>
      </trkpt>
      <trkpt lat="47.30564" lon="0.42501">
        <ele>39</ele>
        <time>2019-08-08T19:01:14.045Z</time>
      </trkpt>
      <trkpt lat="47.30766" lon="0.42686">
        <ele>38</ele>
        <time>2019-08-08T19:03:13.026Z</time>
      </trkpt>
      <trkpt lat="47.30813" lon="0.42757">
        <ele>39</ele>
        <time>2019-08-08T19:03:46.692Z</time>
      </trkpt>
      <trkpt lat="47.30963" lon="0.43147">
        <ele>42</ele>
        <time>2019-08-08T19:06:18.816Z</time>
      </trkpt>
      <trkpt lat="47.30966" lon="0.43248">
        <ele>41</ele>
        <time>2019-08-08T19:06:53.116Z</time>
      </trkpt>
      <trkpt lat="47.30955" lon="0.43304">
        <ele>40</ele>
        <time>2019-08-08T19:07:12.897Z</time>
      </trkpt>
      <trkpt lat="47.30948" lon="0.43578">
        <ele>39</ele>
        <time>2019-08-08T19:08:45.924Z</time>
      </trkpt>
      <trkpt lat="47.31034" lon="0.43767">
        <ele>39</ele>
        <time>2019-08-08T19:10:03.148Z</time>
      </trkpt>
      <trkpt lat="47.31095" lon="0.43799">
        <ele>38</ele>
        <time>2019-08-08T19:10:35.544Z</time>
      </trkpt>
      <trkpt lat="47.31262" lon="0.43965">
        <ele>39</ele>
        <time>2019-08-08T19:12:16.313Z</time>
      </trkpt>
      <trkpt lat="47.31315" lon="0.44025">
        <ele>39</ele>
        <time>2019-08-08T19:12:49.744Z</time>
      </trkpt>
      <trkpt lat="47.31369" lon="0.44306">
        <ele>39</ele>
        <time>2019-08-08T19:14:28.828Z</time>
      </trkpt>
      <trkpt lat="47.31393" lon="0.44387">
        <ele>40</ele>
        <time>2019-08-08T19:14:58.817Z</time>
      </trkpt>
      <trkpt lat="47.31492" lon="0.44493">
        <ele>40</ele>
        <time>2019-08-08T19:16:00.030Z</time>
      </trkpt>
      <trkpt lat="47.31628" lon="0.44716">
        <ele>42</ele>
        <time>2019-08-08T19:17:41.784Z</time>
      </trkpt>
      <trkpt lat="47.31632" lon="0.44776">
        <ele>42</ele>
        <time>2019-08-08T19:18:02.236Z</time>
      </trkpt>
      <trkpt lat="47.31598" lon="0.45042">
        <ele>42</ele>
        <time>2019-08-08T19:19:34.061Z</time>
      </trkpt>
      <trkpt lat="47.3153" lon="0.45246">
        <ele>40</ele>
        <time>2019-08-08T19:20:51.177Z</time>
      </trkpt>
      <trkpt lat="47.31527" lon="0.45359">
        <ele>40</ele>
        <time>2019-08-08T19:21:29.540Z</time>
      </trkpt>
      <trkpt lat="47.3153" lon="0.45473">
        <ele>40</ele>
        <time>2019-08-08T19:22:08.242Z</time>
      </trkpt>
      <trkpt lat="47.31565" lon="0.45458">
        <ele>40</ele>
        <time>2019-08-08T19:22:26.479Z</time>
      </trkpt>
      <trkpt lat="47.31614" lon="0.45368">
        <ele>41</ele>
        <time>2019-08-08T19:23:05.636Z</time>
      </trkpt>
      <trkpt lat="47.31687" lon="0.45181">
        <ele>43</ele>
        <time>2019-08-08T19:24:18.837Z</time>
      </trkpt>
      <trkpt lat="47.31747" lon="0.44975">
        <ele>44</ele>
        <time>2019-08-08T19:25:34.894Z</time>
      </trkpt>
      <trkpt lat="47.3184" lon="0.4528">
        <ele>43</ele>
        <time>2019-08-08T19:27:28.340Z</time>
      </trkpt>
      <trkpt lat="47.31993" lon="0.45795">
        <ele>40</ele>
        <time>2019-08-08T19:30:39.073Z</time>
      </trkpt>
      <trkpt lat="47.32103" lon="0.45741">
        <ele>45</ele>
        <time>2019-08-08T19:31:37.082Z</time>
      </trkpt>
      <trkpt lat="47.32151" lon="0.45782">
        <ele>45</ele>
        <time>2019-08-08T19:32:04.836Z</time>
      </trkpt>
      <trkpt lat="47.32175" lon="0.45785">
        <ele>46</ele>
        <time>2019-08-08T19:32:16.888Z</time>
      </trkpt>
      <trkpt lat="47.32177" lon="0.45797">
        <ele>46</ele>
        <time>2019-08-08T19:32:21.080Z</time>
      </trkpt>
      <trkpt lat="47.32225" lon="0.45893">
        <ele>44</ele>
        <time>2019-08-08T19:33:01.542Z</time>
      </trkpt>
      <trkpt lat="47.32272" lon="0.4599">
        <ele>42</ele>
        <time>2019-08-08T19:33:41.984Z</time>
      </trkpt>
      <trkpt lat="47.3232" lon="0.46086">
        <ele>42</ele>
        <time>2019-08-08T19:34:22.446Z</time>
      </trkpt>
      <trkpt lat="47.32369" lon="0.46188">
        <ele>40</ele>
        <time>2019-08-08T19:35:04.850Z</time>
      </trkpt>
      <trkpt lat="47.32449" lon="0.46338">
        <ele>38</ele>
        <time>2019-08-08T19:36:09.587Z</time>
      </trkpt>
      <trkpt lat="47.32473" lon="0.46362">
        <ele>38</ele>
        <time>2019-08-08T19:36:24.095Z</time>
      </trkpt>
      <trkpt lat="47.32539" lon="0.4643">
        <ele>38</ele>
        <time>2019-08-08T19:37:04.376Z</time>
      </trkpt>
      <trkpt lat="47.32644" lon="0.46537">
        <ele>38</ele>
        <time>2019-08-08T19:38:08.231Z</time>
      </trkpt>
      <trkpt lat="47.32721" lon="0.46449">
        <ele>39</ele>
        <time>2019-08-08T19:38:56.968Z</time>
      </trkpt>
      <trkpt lat="47.32755" lon="0.46542">
        <ele>38</ele>
        <time>2019-08-08T19:39:32.805Z</time>
      </trkpt>
      <trkpt lat="47.32809" lon="0.4658">
        <ele>38</ele>
        <time>2019-08-08T19:40:02.742Z</time>
      </trkpt>
      <trkpt lat="47.32847" lon="0.46616">
        <ele>39</ele>
        <time>2019-08-08T19:40:25.339Z</time>
      </trkpt>
      <trkpt lat="47.32894" lon="0.4668">
        <ele>40</ele>
        <time>2019-08-08T19:40:57.342Z</time>
      </trkpt>
      <trkpt lat="47.32896" lon="0.46706">
        <ele>40</ele>
        <time>2019-08-08T19:41:06.217Z</time>
      </trkpt>
      <trkpt lat="47.32868" lon="0.46812">
        <ele>40</ele>
        <time>2019-08-08T19:41:44.801Z</time>
      </trkpt>
      <trkpt lat="47.32833" lon="0.46913">
        <ele>40</ele>
        <time>2019-08-08T19:42:23.273Z</time>
      </trkpt>
      <trkpt lat="47.32838" lon="0.46924">
        <ele>40</ele>
        <time>2019-08-08T19:42:27.765Z</time>
      </trkpt>
      <trkpt lat="47.32908" lon="0.46968">
        <ele>40</ele>
        <time>2019-08-08T19:43:05.838Z</time>
      </trkpt>
      <trkpt lat="47.32966" lon="0.46999">
        <ele>39</ele>
        <time>2019-08-08T19:43:36.706Z</time>
      </trkpt>
      <trkpt lat="47.32977" lon="0.4701">
        <ele>39</ele>
        <time>2019-08-08T19:43:43.355Z</time>
      </trkpt>
      <trkpt lat="47.33078" lon="0.46964">
        <ele>38</ele>
        <time>2019-08-08T19:44:36.246Z</time>
      </trkpt>
      <trkpt lat="47.33143" lon="0.46919">
        <ele>40</ele>
        <time>2019-08-08T19:45:12.173Z</time>
      </trkpt>
    </trkseg>
  </trk>
</gpx>